createdAt,value
2022-11-07T00:00:30.020Z,1.30
2022-11-07T00:02:57.464Z,1.55
2022-11-07T00:05:24.605Z,1.50
2022-11-07T00:07:51.680Z,1.60
2022-11-07T00:10:18.776Z,1.88
2022-11-07T00:12:45.896Z,1.23
2022-11-07T00:15:12.980Z,1.58
2022-11-07T00:17:40.104Z,1.77
2022-11-07T00:20:07.559Z,1.60
2022-11-07T00:22:34.757Z,1.40
2022-11-07T00:25:01.861Z,1.50
2022-11-07T00:27:28.997Z,1.63
2022-11-07T00:29:56.281Z,1.83
2022-11-07T00:32:23.405Z,1.38
2022-11-07T00:34:50.514Z,1.50
2022-11-07T00:37:17.638Z,1.33
2022-11-07T00:39:44.816Z,1.42
2022-11-07T00:42:11.942Z,1.50
2022-11-07T00:44:39.039Z,1.58
2022-11-07T00:47:06.140Z,1.20
2022-11-07T00:49:33.368Z,1.15
2022-11-07T00:52:00.466Z,1.50
2022-11-07T00:54:27.531Z,1.35
2022-11-07T00:56:54.651Z,1.10
2022-11-07T00:59:21.783Z,1.33
2022-11-07T01:01:48.990Z,1.40
2022-11-07T01:04:35.105Z,1.08
2022-11-07T01:07:02.686Z,1.25
2022-11-07T01:09:29.776Z,1.00
2022-11-07T01:11:56.863Z,1.10
2022-11-07T01:14:24.731Z,1.40
2022-11-07T01:16:51.909Z,1.50
2022-11-07T01:19:19.801Z,1.17
2022-11-07T01:21:46.920Z,1.10
2022-11-07T01:24:14.891Z,1.10
2022-11-07T01:26:43.179Z,1.20
2022-11-07T01:29:11.071Z,1.30
2022-11-07T01:31:38.218Z,1.40
2022-11-07T01:34:05.384Z,1.02
2022-11-07T01:36:32.727Z,1.20
2022-11-07T01:38:59.967Z,1.35
2022-11-07T01:41:28.525Z,1.50
2022-11-07T01:43:57.384Z,1.27
2022-11-07T01:46:33.494Z,1.20
2022-11-07T01:49:06.621Z,1.20
2022-11-07T01:51:35.201Z,1.05
2022-11-07T01:54:03.548Z,1.30
2022-11-07T01:56:32.455Z,1.20
2022-11-07T01:58:59.924Z,0.90
2022-11-07T02:01:27.376Z,1.60
2022-11-07T02:03:55.407Z,1.45
2022-11-07T02:06:29.700Z,1.20
2022-11-07T02:08:56.862Z,1.40
2022-11-07T02:11:24.577Z,1.30
2022-11-07T02:13:51.670Z,1.52
2022-11-07T02:16:18.816Z,1.42
2022-11-07T02:18:46.710Z,2.88
2022-11-07T02:21:18.464Z,1.20
2022-11-07T02:23:52.553Z,1.45
2022-11-07T02:26:19.936Z,1.20
2022-11-07T02:28:48.142Z,1.40
2022-11-07T02:31:15.211Z,1.30
2022-11-07T02:33:42.322Z,1.02
2022-11-07T02:36:13.663Z,1.27
2022-11-07T02:38:40.871Z,1.27
2022-11-07T02:41:10.843Z,1.20
2022-11-07T02:43:39.815Z,1.30
2022-11-07T02:46:08.194Z,1.35
2022-11-07T02:48:42.013Z,1.33
2022-11-07T02:51:09.110Z,1.30
2022-11-07T02:53:36.262Z,1.50
2022-11-07T02:56:03.375Z,1.30
2022-11-07T02:58:30.456Z,1.38
2022-11-07T03:01:06.856Z,1.30
2022-11-07T03:03:35.171Z,1.15
2022-11-07T03:06:02.603Z,1.08
2022-11-07T03:08:29.767Z,1.88
2022-11-07T03:10:56.833Z,1.60
2022-11-07T03:13:24.219Z,1.50
2022-11-07T03:15:51.380Z,1.38
2022-11-07T03:18:18.728Z,1.15
2022-11-07T03:20:46.026Z,1.40
2022-11-07T03:23:13.440Z,1.40
2022-11-07T03:25:40.754Z,1.13
2022-11-07T03:28:07.844Z,1.48
2022-11-07T03:30:34.909Z,1.33
2022-11-07T03:33:02.058Z,1.40
2022-11-07T03:35:29.169Z,1.65
2022-11-07T03:37:56.268Z,1.02
2022-11-07T03:40:23.380Z,1.52
2022-11-07T03:42:50.453Z,1.40
2022-11-07T03:45:18.101Z,1.25
2022-11-07T03:47:45.866Z,1.45
2022-11-07T03:50:17.468Z,1.30
2022-11-07T03:52:44.632Z,1.38
2022-11-07T03:55:12.278Z,1.30
2022-11-07T03:57:39.365Z,1.42
2022-11-07T04:00:07.290Z,1.20
2022-11-07T04:02:34.566Z,1.40
2022-11-07T04:05:01.775Z,0.98
2022-11-07T04:07:28.879Z,2.00
2022-11-07T04:09:56.056Z,1.50
2022-11-07T04:12:42.121Z,1.20
2022-11-07T04:15:30.610Z,1.30
2022-11-07T04:17:57.841Z,1.10
2022-11-07T04:20:24.926Z,1.20
2022-11-07T04:22:52.017Z,1.20
2022-11-07T04:25:39.030Z,1.23
2022-11-07T04:28:06.120Z,1.15
2022-11-07T04:30:33.232Z,1.40
2022-11-07T04:33:01.513Z,1.10
2022-11-07T04:35:30.065Z,1.17
2022-11-07T04:37:57.216Z,1.02
2022-11-07T04:40:24.273Z,1.50
2022-11-07T04:42:51.519Z,1.13
2022-11-07T04:45:18.918Z,1.15
2022-11-07T04:47:46.340Z,1.27
2022-11-07T04:50:15.085Z,1.65
2022-11-07T04:52:42.214Z,1.48
2022-11-07T04:55:10.549Z,2.20
2022-11-07T04:57:37.684Z,1.63
2022-11-07T05:00:04.984Z,2.80
2022-11-07T05:02:32.225Z,2.75
2022-11-07T05:04:59.341Z,2.28
2022-11-07T05:07:26.464Z,2.50
2022-11-07T05:09:53.583Z,2.60
2022-11-07T05:12:20.673Z,2.00
2022-11-07T05:14:47.733Z,1.70
2022-11-07T05:17:15.350Z,1.65
2022-11-07T05:19:45.717Z,1.38
2022-11-07T05:22:31.405Z,1.40
2022-11-07T05:24:58.701Z,1.48
2022-11-07T05:27:25.775Z,1.40
2022-11-07T05:29:53.205Z,1.58
2022-11-07T05:32:20.307Z,1.77
2022-11-07T05:34:47.419Z,2.25
2022-11-07T05:37:14.711Z,1.25
2022-11-07T05:39:41.831Z,1.58
2022-11-07T05:42:08.887Z,1.40
2022-11-07T05:44:36.048Z,1.20
2022-11-07T05:47:03.121Z,1.30
2022-11-07T05:49:30.204Z,1.45
2022-11-07T05:51:57.620Z,1.65
2022-11-07T05:54:27.846Z,1.00
2022-11-07T05:56:58.371Z,1.70
2022-11-07T05:59:25.984Z,1.20
2022-11-07T06:01:53.783Z,1.20
2022-11-07T06:04:21.104Z,1.30
2022-11-07T06:06:48.184Z,1.42
2022-11-07T06:09:15.474Z,1.27
2022-11-07T06:11:42.683Z,1.40
2022-11-07T06:14:09.817Z,1.77
2022-11-07T06:16:37.097Z,1.20
2022-11-07T06:19:04.157Z,1.40
2022-11-07T06:21:31.343Z,1.13
2022-11-07T06:23:59.339Z,1.10
2022-11-07T06:26:26.781Z,1.27
2022-11-07T06:28:54.003Z,1.13
2022-11-07T06:31:21.171Z,1.30
2022-11-07T06:33:51.782Z,1.13
2022-11-07T06:36:19.264Z,1.20
2022-11-07T06:38:46.400Z,1.20
2022-11-07T06:41:14.885Z,1.92
2022-11-07T06:43:42.045Z,2.42
2022-11-07T06:46:10.914Z,1.92
2022-11-07T06:48:38.273Z,1.35
2022-11-07T06:51:06.539Z,1.80
2022-11-07T06:53:33.641Z,1.80
2022-11-07T06:56:00.982Z,1.90
2022-11-07T06:58:28.038Z,1.98
2022-11-07T07:00:59.104Z,2.15
2022-11-07T07:03:26.222Z,2.05
2022-11-07T07:05:53.325Z,1.40
2022-11-07T07:08:20.409Z,1.55
2022-11-07T07:10:47.551Z,1.35
2022-11-07T07:13:15.313Z,1.50
2022-11-07T07:15:51.005Z,2.83
2022-11-07T07:18:18.950Z,2.03
2022-11-07T07:20:46.457Z,1.30
2022-11-07T07:23:13.576Z,1.60
2022-11-07T07:25:40.655Z,1.52
2022-11-07T07:28:07.708Z,2.00
2022-11-07T07:30:34.801Z,1.73
2022-11-07T07:33:01.948Z,1.55
2022-11-07T07:35:29.022Z,1.63
2022-11-07T07:37:56.163Z,1.30
2022-11-07T07:40:23.300Z,1.27
2022-11-07T07:42:50.373Z,1.30
2022-11-07T07:45:17.788Z,1.58
2022-11-07T07:47:45.060Z,1.70
2022-11-07T07:50:13.037Z,1.48
2022-11-07T07:52:40.114Z,1.42
2022-11-07T07:55:11.467Z,2.13
2022-11-07T07:57:39.352Z,1.65
2022-11-07T08:00:06.666Z,2.08
2022-11-07T08:02:33.838Z,1.27
2022-11-07T08:05:00.966Z,1.30
2022-11-07T08:07:28.070Z,1.88
2022-11-07T08:09:55.155Z,1.30
2022-11-07T08:12:22.326Z,1.45
2022-11-07T08:14:49.390Z,1.30
2022-11-07T08:17:16.530Z,1.17
2022-11-07T08:19:43.606Z,1.45
2022-11-07T08:22:11.457Z,1.33
2022-11-07T08:24:38.694Z,1.20
2022-11-07T08:27:05.816Z,1.70
2022-11-07T08:29:32.964Z,1.20
2022-11-07T08:32:00.056Z,1.48
2022-11-07T08:34:27.401Z,1.95
2022-11-07T08:36:54.522Z,1.30
2022-11-07T08:39:21.644Z,1.20
2022-11-07T08:41:48.733Z,1.40
2022-11-07T08:44:15.866Z,1.80
2022-11-07T08:46:42.930Z,1.73
2022-11-07T08:49:10.039Z,1.15
2022-11-07T08:51:37.109Z,1.38
2022-11-07T08:54:04.239Z,2.70
2022-11-07T08:56:31.477Z,2.13
2022-11-07T08:58:58.527Z,1.95
2022-11-07T09:01:25.723Z,1.60
2022-11-07T09:03:56.743Z,1.60
2022-11-07T09:06:24.973Z,1.88
2022-11-07T09:08:52.041Z,1.45
2022-11-07T09:11:19.531Z,1.55
2022-11-07T09:13:47.231Z,2.72
2022-11-07T09:16:17.333Z,3.22
2022-11-07T09:18:45.111Z,3.88
2022-11-07T09:21:16.451Z,2.40
2022-11-07T09:23:46.370Z,2.30
2022-11-07T09:26:13.593Z,1.30
2022-11-07T09:28:40.753Z,1.55
2022-11-07T09:31:07.859Z,1.80
2022-11-07T09:33:35.011Z,1.70
2022-11-07T09:36:05.981Z,1.45
2022-11-07T09:38:33.326Z,1.50
2022-11-07T09:41:08.660Z,1.48
2022-11-07T09:43:44.693Z,2.10
2022-11-07T09:46:11.738Z,1.70
2022-11-07T09:48:46.729Z,1.70
2022-11-07T09:51:37.080Z,1.77
2022-11-07T09:54:15.919Z,1.30
2022-11-07T09:56:44.302Z,1.35
2022-11-07T09:59:17.967Z,1.40
2022-11-07T10:01:45.155Z,1.50
2022-11-07T10:04:25.892Z,1.30
2022-11-07T10:06:56.558Z,1.35
2022-11-07T10:09:32.563Z,1.38
2022-11-07T10:12:08.464Z,1.58
2022-11-07T10:15:00.421Z,1.10
2022-11-07T10:17:44.801Z,1.35
2022-11-07T10:20:23.511Z,1.35
2022-11-07T10:22:51.933Z,1.65
2022-11-07T10:25:25.463Z,1.10
2022-11-07T10:27:55.294Z,1.95
2022-11-07T10:30:22.550Z,1.40
2022-11-07T10:32:49.634Z,1.27
2022-11-07T10:35:24.512Z,1.48
2022-11-07T10:37:55.409Z,2.67
2022-11-07T10:40:23.324Z,1.60
2022-11-07T10:42:51.365Z,1.30
2022-11-07T10:45:18.803Z,1.13
2022-11-07T10:48:02.853Z,1.33
2022-11-07T10:50:30.593Z,1.40
2022-11-07T10:53:01.981Z,1.67
2022-11-07T10:55:31.389Z,2.53
2022-11-07T10:57:59.709Z,1.30
2022-11-07T11:00:30.687Z,1.73
2022-11-07T11:02:58.141Z,1.60
2022-11-07T11:05:25.281Z,1.30
2022-11-07T11:07:52.769Z,1.75
2022-11-07T11:10:22.949Z,1.80
2022-11-07T11:12:50.085Z,1.30
2022-11-07T11:15:19.258Z,1.50
2022-11-07T11:17:46.538Z,1.38
2022-11-07T11:20:43.049Z,1.35
2022-11-07T11:23:20.329Z,1.20
2022-11-07T11:25:48.730Z,2.05
2022-11-07T11:28:23.269Z,1.98
2022-11-07T11:30:54.192Z,1.50
2022-11-07T11:33:23.582Z,1.33
2022-11-07T11:35:54.485Z,1.20
2022-11-07T11:38:26.953Z,1.52
2022-11-07T11:41:04.699Z,1.35
2022-11-07T11:43:41.421Z,1.40
2022-11-07T11:46:20.972Z,1.30
2022-11-07T11:48:53.803Z,1.50
2022-11-07T11:51:37.107Z,1.50
2022-11-07T11:54:06.223Z,2.20
2022-11-07T11:56:39.747Z,1.90
2022-11-07T11:59:12.623Z,2.40
2022-11-07T12:01:39.665Z,3.70
2022-11-07T12:04:08.103Z,3.38
2022-11-07T12:06:39.919Z,3.80
2022-11-07T12:09:15.334Z,2.30
2022-11-07T12:12:03.461Z,3.35
2022-11-07T12:14:39.514Z,6.05
2022-11-07T12:17:09.365Z,6.10
2022-11-07T12:19:36.501Z,6.55
2022-11-07T12:22:22.351Z,2.72
2022-11-07T12:25:01.622Z,4.03
2022-11-07T12:27:51.744Z,2.50
2022-11-07T12:30:19.014Z,3.10
2022-11-07T12:33:01.573Z,4.32
2022-11-07T12:35:41.998Z,1.88
2022-11-07T12:38:33.327Z,1.55
2022-11-07T12:41:07.679Z,1.60
2022-11-07T12:43:37.573Z,1.90
2022-11-07T12:46:27.686Z,1.65
2022-11-07T12:49:09.083Z,1.90
2022-11-07T12:51:42.065Z,2.13
2022-11-07T12:54:23.236Z,2.35
2022-11-07T12:56:51.788Z,2.15
2022-11-07T12:59:24.727Z,2.17
2022-11-07T13:01:55.022Z,2.13
2022-11-07T13:04:33.161Z,1.50
2022-11-07T13:07:18.372Z,1.95
2022-11-07T13:09:56.808Z,1.40
2022-11-07T13:12:23.937Z,1.15
2022-11-07T13:14:51.435Z,2.28
2022-11-07T13:17:27.745Z,2.53
2022-11-07T13:20:02.600Z,1.45
2022-11-07T13:22:35.990Z,1.42
2022-11-07T13:25:16.383Z,1.42
2022-11-07T13:27:56.099Z,1.30
2022-11-07T13:30:24.325Z,1.20
2022-11-07T13:32:52.106Z,1.60
2022-11-07T13:35:25.306Z,1.70
2022-11-07T13:37:58.057Z,1.65
2022-11-07T13:42:58.258Z,1.30
2022-11-07T13:45:31.696Z,1.30
2022-11-07T13:48:00.775Z,1.00
2022-11-07T13:50:41.733Z,1.20
2022-11-07T13:53:17.250Z,0.85
2022-11-07T13:56:03.473Z,1.20
2022-11-07T13:58:32.145Z,1.05
2022-11-07T14:01:12.723Z,1.15
2022-11-07T14:03:39.908Z,1.30
2022-11-07T14:06:07.349Z,1.20
2022-11-07T14:08:37.325Z,1.38
2022-11-07T14:11:05.322Z,1.27
2022-11-07T14:13:40.918Z,1.20
2022-11-07T14:16:16.116Z,1.00
2022-11-07T14:19:03.498Z,0.90
2022-11-07T14:21:32.037Z,1.17
2022-11-07T14:23:59.389Z,1.50
2022-11-07T14:26:28.202Z,1.63
2022-11-07T14:28:56.880Z,1.20
2022-11-07T14:31:26.985Z,1.52
2022-11-07T14:34:02.454Z,1.35
2022-11-07T14:36:29.925Z,1.38
2022-11-07T14:39:12.786Z,1.70
2022-11-07T14:41:43.681Z,1.60
2022-11-07T14:44:14.310Z,1.20
2022-11-07T14:46:41.921Z,1.35
2022-11-07T14:49:15.898Z,1.60
2022-11-07T14:51:43.052Z,1.50
2022-11-07T14:54:11.710Z,2.22
2022-11-07T14:56:41.718Z,1.98
2022-11-07T14:59:11.744Z,2.25
2022-11-07T15:01:39.002Z,2.47
2022-11-07T15:04:27.670Z,2.85
2022-11-07T15:06:54.917Z,3.78
2022-11-07T15:09:32.457Z,2.58
2022-11-07T15:12:00.590Z,2.60
2022-11-07T15:14:37.701Z,2.63
2022-11-07T15:17:04.944Z,2.67
2022-11-07T15:19:33.710Z,2.13
2022-11-07T15:22:03.123Z,2.05
2022-11-07T15:24:33.365Z,2.60
2022-11-07T15:27:01.988Z,3.22
2022-11-07T15:29:33.585Z,1.95
2022-11-07T15:32:13.354Z,4.15
2022-11-07T15:35:01.013Z,2.45
2022-11-07T15:37:27.738Z,7.57
2022-11-07T15:39:55.027Z,6.22
2022-11-07T15:42:22.117Z,9.40
2022-11-07T15:44:49.205Z,9.90
2022-11-07T15:47:20.264Z,11.50
2022-11-07T15:49:47.912Z,16.95
2022-11-07T15:52:15.321Z,12.05
2022-11-07T15:54:42.414Z,9.95
2022-11-07T15:57:09.687Z,13.27
2022-11-07T15:59:38.029Z,8.18
2022-11-07T16:02:05.788Z,2.65
2022-11-07T16:04:37.866Z,2.47
2022-11-07T16:07:09.661Z,2.28
2022-11-07T16:09:36.725Z,2.17
2022-11-07T16:12:03.849Z,1.90
2022-11-07T16:14:43.534Z,1.83
2022-11-07T16:17:19.399Z,1.45
2022-11-07T16:19:46.959Z,2.00
2022-11-07T16:22:15.188Z,2.03
2022-11-07T16:24:42.641Z,1.45
2022-11-07T16:27:14.873Z,2.10
2022-11-07T16:29:44.097Z,1.90
2022-11-07T16:32:17.600Z,1.60
2022-11-07T16:34:45.637Z,1.95
2022-11-07T16:37:12.889Z,2.28
2022-11-07T16:39:40.008Z,6.45
2022-11-07T16:42:10.124Z,8.23
2022-11-07T16:44:37.238Z,5.35
2022-11-07T16:47:04.427Z,2.85
2022-11-07T16:49:33.762Z,13.13
2022-11-07T16:52:01.073Z,5.70
2022-11-07T16:54:28.130Z,6.47
2022-11-07T16:56:56.445Z,4.47
2022-11-07T16:59:24.845Z,4.10
2022-11-07T17:01:52.447Z,2.78
2022-11-07T17:04:19.625Z,2.60
2022-11-07T17:06:47.661Z,2.35
2022-11-07T17:09:24.662Z,2.85
2022-11-07T17:11:51.779Z,3.72
2022-11-07T17:14:18.914Z,3.72
2022-11-07T17:16:48.157Z,3.95
2022-11-07T17:19:15.533Z,5.40
2022-11-07T17:21:46.312Z,4.68
2022-11-07T17:24:13.881Z,5.22
2022-11-07T17:26:41.165Z,5.20
2022-11-07T17:29:09.214Z,3.67
2022-11-07T17:31:36.321Z,3.10
2022-11-07T17:34:03.549Z,1.58
2022-11-07T17:36:37.123Z,1.85
2022-11-07T17:39:11.223Z,3.47
2022-11-07T17:41:39.350Z,4.10
2022-11-07T17:44:06.760Z,7.53
2022-11-07T17:46:34.725Z,8.13
2022-11-07T17:49:02.769Z,8.00
2022-11-07T17:51:30.066Z,6.85
2022-11-07T17:53:57.898Z,3.92
2022-11-07T17:56:26.174Z,3.28
2022-11-07T17:58:54.556Z,3.40
2022-11-07T18:01:23.142Z,13.57
2022-11-07T18:03:51.315Z,9.57
2022-11-07T18:06:18.543Z,8.60
2022-11-07T18:08:52.284Z,6.63
2022-11-07T18:11:20.730Z,5.05
2022-11-07T18:13:50.663Z,5.22
2022-11-07T18:16:19.800Z,4.70
2022-11-07T18:18:47.122Z,7.70
2022-11-07T18:21:14.734Z,7.93
2022-11-07T18:23:42.292Z,5.82
2022-11-07T18:26:11.224Z,4.90
2022-11-07T18:28:39.097Z,3.78
2022-11-07T18:31:10.594Z,3.75
2022-11-07T18:33:38.038Z,2.72
2022-11-07T18:36:06.631Z,3.47
2022-11-07T18:38:33.881Z,5.68
2022-11-07T18:41:06.373Z,5.85
2022-11-07T18:43:34.016Z,5.05
2022-11-07T18:46:01.250Z,5.38
2022-11-07T18:48:29.752Z,5.25
2022-11-07T18:50:57.077Z,7.40
2022-11-07T18:53:24.857Z,6.63
2022-11-07T18:55:59.209Z,7.25
2022-11-07T18:58:28.002Z,7.93
2022-11-07T19:00:55.459Z,9.80
2022-11-07T19:03:22.898Z,7.18
2022-11-07T19:05:50.200Z,5.93
2022-11-07T19:08:17.606Z,4.72
2022-11-07T19:10:44.939Z,5.30
2022-11-07T19:13:12.008Z,7.25
2022-11-07T19:15:40.003Z,8.88
2022-11-07T19:18:07.119Z,13.85
2022-11-07T19:20:34.235Z,12.07
2022-11-07T19:23:01.371Z,11.50
2022-11-07T19:25:28.430Z,22.67
2022-11-07T19:27:55.545Z,22.00
2022-11-07T19:30:22.633Z,25.60
2022-11-07T19:32:51.255Z,21.92
2022-11-07T19:35:19.226Z,29.67
2022-11-07T19:37:46.338Z,25.75
2022-11-07T19:40:13.480Z,27.25
2022-11-07T19:42:40.540Z,23.85
2022-11-07T19:45:07.778Z,19.95
2022-11-07T19:47:34.857Z,16.90
2022-11-07T19:50:02.004Z,17.60
2022-11-07T19:52:29.097Z,17.05
2022-11-07T19:54:56.234Z,17.23
2022-11-07T19:57:23.359Z,18.13
2022-11-07T19:59:50.438Z,17.02
2022-11-07T20:02:32.337Z,18.50
2022-11-07T20:04:59.736Z,18.15
2022-11-07T20:07:26.870Z,15.15
2022-11-07T20:09:54.906Z,15.35
2022-11-07T20:12:22.098Z,17.63
2022-11-07T20:14:49.233Z,16.67
2022-11-07T20:17:16.352Z,17.75
2022-11-07T20:19:43.405Z,17.58
2022-11-07T20:22:12.171Z,17.75
2022-11-07T20:24:39.269Z,18.10
2022-11-07T20:27:06.390Z,18.45
2022-11-07T20:29:33.906Z,18.67
2022-11-07T20:32:00.985Z,17.85
2022-11-07T20:34:28.225Z,19.75
2022-11-07T20:36:55.352Z,18.75
2022-11-07T20:39:22.441Z,19.17
2022-11-07T20:41:49.515Z,20.15
2022-11-07T20:44:17.071Z,24.75
2022-11-07T20:46:45.397Z,24.17
2022-11-07T20:49:13.664Z,21.67
2022-11-07T20:51:41.184Z,20.23
2022-11-07T20:54:08.774Z,18.30
2022-11-07T20:56:35.990Z,17.70
2022-11-07T20:59:03.061Z,19.27
2022-11-07T21:01:35.838Z,27.23
2022-11-07T21:04:04.544Z,27.88
2022-11-07T21:06:31.758Z,28.80
2022-11-07T21:08:58.974Z,28.60
2022-11-07T21:11:26.882Z,22.25
2022-11-07T21:13:53.984Z,20.90
2022-11-07T21:16:22.149Z,17.08
2022-11-07T21:18:49.920Z,18.23
2022-11-07T21:21:20.171Z,17.48
2022-11-07T21:23:47.985Z,13.32
2022-11-07T21:26:17.072Z,14.65
2022-11-07T21:28:44.245Z,11.20
2022-11-07T21:31:16.598Z,11.20
2022-11-07T21:33:43.681Z,10.15
2022-11-07T21:36:11.964Z,9.65
2022-11-07T21:38:39.155Z,9.38
2022-11-07T21:41:06.879Z,7.30
2022-11-07T21:43:34.051Z,7.93
2022-11-07T21:46:07.918Z,7.38
2022-11-07T21:48:35.989Z,8.30
2022-11-07T21:51:06.930Z,9.25
2022-11-07T21:53:37.650Z,8.57
2022-11-07T21:56:06.767Z,9.10
2022-11-07T21:58:34.131Z,9.75
2022-11-07T22:01:02.548Z,9.45
2022-11-07T22:03:51.493Z,9.65
2022-11-07T22:06:19.537Z,10.02
2022-11-07T22:08:47.579Z,9.48
2022-11-07T22:11:15.318Z,9.45
2022-11-07T22:13:42.563Z,9.82
2022-11-07T22:16:12.376Z,10.18
2022-11-07T22:18:39.653Z,9.32
2022-11-07T22:21:07.394Z,8.80
2022-11-07T22:23:35.617Z,9.07
2022-11-07T22:26:11.152Z,9.85
2022-11-07T22:28:42.871Z,8.38
2022-11-07T22:31:17.142Z,8.95
2022-11-07T22:33:44.249Z,8.43
2022-11-07T22:36:11.888Z,8.07
2022-11-07T22:38:39.542Z,8.95
2022-11-07T22:41:07.380Z,6.38
2022-11-07T22:43:35.110Z,6.30
2022-11-07T22:46:09.556Z,6.38
2022-11-07T22:48:36.838Z,5.88
2022-11-07T22:51:03.962Z,4.70
2022-11-07T22:53:31.160Z,4.53
2022-11-07T22:55:58.269Z,4.90
2022-11-07T22:58:25.392Z,4.95
2022-11-07T23:00:52.533Z,4.30
2022-11-07T23:03:19.756Z,4.00
2022-11-07T23:05:46.892Z,4.07
2022-11-07T23:08:14.205Z,3.97
2022-11-07T23:10:41.641Z,5.78
2022-11-07T23:13:08.721Z,8.32
2022-11-07T23:15:35.803Z,6.15
2022-11-07T23:18:02.871Z,5.32
2022-11-07T23:20:48.863Z,5.65
2022-11-07T23:23:15.979Z,4.25
2022-11-07T23:25:43.064Z,4.35
2022-11-07T23:28:10.169Z,4.30
2022-11-07T23:30:38.985Z,4.35
2022-11-07T23:33:06.073Z,5.43
2022-11-07T23:35:33.192Z,5.47
2022-11-07T23:38:00.417Z,5.05
2022-11-07T23:40:27.501Z,5.35
2022-11-07T23:42:54.615Z,5.30
2022-11-07T23:45:40.408Z,4.90
2022-11-07T23:48:27.932Z,5.45
2022-11-07T23:51:04.324Z,5.40
2022-11-07T23:53:50.887Z,4.65
2022-11-07T23:56:18.718Z,4.43
2022-11-07T23:59:04.676Z,4.53
